Portada
METAR-TAF:

METAR-TAF

Aeroports :

Tarakan, Indonèsia

latitud: 03-19-36N, longitud: 117-33-56E, altitud: 6 m

Observació

L'informe es va fer fa 55 minuts, a les 12:00 UTC
Vent 3 kt del Est/Nord-Est
Temperatura 28°C
Humitat 89%
Pressió 1007 hPa
Visibilitat: 8000 m
Escasses núvols a una alçada de 1500 ft

METAR: WAQQ 141200Z 07003KT 8000 FEW015 28/26 Q1007

Hora: 19:55 (12:55 UTC)

Pronòstic

L'informe es va fer fa 1 hora i 55 minuts, a les 11:00 UTC
Pronòstic vàlid del 14 a les 12 UTC al 14 a les 18 UTC
Vent 4 kt del Est
Visibilitat: 8000 m
Núvols disperses a una alçada de 1500 ft

TAF: WAQQ 141100Z 1412/1418 08004KT 8000 SCT015

Observacions i pronòstics meteorològics de més de 4000 aeroports (METAR i TAF).

Les estacions disponibles són els punts grocs i vermells al mapa.

Posi el ratolí al punt desitjat per veure el nom de l'estació.

Feu clic per veure les observacions i els pronòstics meteorològics.

Per canviar el mapa: feu clic els botons verds amb una creu de color negre per apropar; al botó verd amb un guió per allunyar la imatge; o en les fletxes verdes per a mapes adjacents.


METAR-TAF: